Terminal Aerodrome Forecast
Issued by NWS Wilmington, OH

Current Version | Previous Version | Text Only | Print | Product List | Glossary Off
Versions: 1 2 3 4 5 6 7 8 9 10 11 12 13 14 15 16 17 18 19 20 21 22 23 24

365
FTUS41 KILN 182107 AAA
TAFCVG
TAF AMD
KCVG 182107Z 1821/1924 VRB03KT P6SM VCTS SCT040CB BKN120
      TEMPO 1821/1822 5SM -TSRA OVC040CB
     FM190000 VRB03KT P6SM BKN150
     FM191000 VRB03KT P6SM BKN050
     FM191500 VRB03KT P6SM -SHRA BKN060
     FM191900 VRB03KT P6SM BKN200=

USA.gov is the U.S. government's official web portal to all federal, state and local government web resources and services.